Nearby METAR Reports

 

KSJC - San Jose, California, USA
Distance from station: NE 14km
Actualización: 26/01/2020 23:53
Muy nuboso
Muy nuboso
 Viento del NNO
Viento: NNO 20 km/h
Temperatura: 15°C
Rocío: 8°C
Humedad: 63%
Barómetro: 1024.4 hPa
Clouds: Muy nuboso
Visibilidad: 16 km
Cloud details: Few Clouds 701 m
Parcialmente nuboso 945 m
Muy nuboso 2591 m
2020/01/26 22:53 KSJC 262253Z 33011KT 10SM FEW023TCU SCT031TCU BKN085 15/08 A3025 RMK AO2 SLP243 TCU N-NE TCU S T01500083 $
KNUQ - Moffett Nas/Mtn, California, USA
Distance from station: N 14km
Actualización: 21/11/2019 17:56
NOT Current

 
Barómetro: 1011.2 hPa
2019/11/21 16:56 KNUQ 211656Z AUTO A2986 RMK AO2 SLP116 PWINO $
 
KPAO - Palo Alto, California, USA
Distance from station: NNO 23km
Actualización: 26/01/2020 23:47
Parcialmente nuboso
Parcialmente nuboso
 Viento del NO
Viento: NO 19 km/h
Temperatura: 16°C
Rocío: 10°C
Humedad: 68%
Barómetro: 1024.7 hPa
Clouds: Parcialmente nuboso
Visibilidad: 16 km
Cloud details: Parcialmente nuboso 914 m
2020/01/26 22:47 KPAO 262247Z 32010KT 10SM SCT030 16/10 A3026
KRHV - San Jose/Reid, California, USA
Distance from station: ENE 19km
Actualización: 26/01/2020 23:50
Parcialmente nuboso
Parcialmente nuboso
 Viento del NNO
Viento: NNO 20 km/h
Temperatura: 16°C
Rocío: 9°C
Humedad: 63%
Barómetro: 1024.4 hPa
Clouds: Parcialmente nuboso
Visibilidad: 16 km
Cloud details: Parcialmente nuboso 914 m
2020/01/26 22:50 KRHV 262250Z 34011KT 10SM SCT030 16/09 A3025
 
KOAK - Oakland, California, USA
Distance from station: NNO 50km
Actualización: 26/01/2020 23:53
Muy nuboso
Muy nuboso
 Viento del O
Viento: O 19 km/h
Temperatura: 16°C
Rocío: 11°C
Humedad: 72%
Barómetro: 1024.7 hPa
Clouds: Muy nuboso
Visibilidad: 16 km
Cloud details: Parcialmente nuboso 762 m
Muy nuboso 1219 m
Muy nuboso 5486 m
2020/01/26 22:53 KOAK 262253Z 26010KT 10SM SCT025 BKN040 BKN180 16/11 A3026 RMK AO2 SLP246 T01610111 $
KSQL - San Carlos Airpo, California, USA
Distance from station: NO 34km
Actualización: 26/01/2020 23:47
Parcialmente nuboso
Parcialmente nuboso
 Viento del O
Viento: O 20 km/h
Temperatura: 15°C
Rocío: 9°C
Humedad: 68%
Barómetro: 1025.1 hPa
Clouds: Parcialmente nuboso
Visibilidad: 16 km
Cloud details: Parcialmente nuboso 823 m
2020/01/26 22:47 KSQL 262247Z 28011KT 10SM SCT027 15/09 A3027
 
KSFO - San Francisco, California, USA
Distance from station: NO 49km
Actualización: 26/01/2020 23:56
Muy nuboso
Muy nuboso
 Viento del O
Viento: O 20 km/h
Temperatura: 14°C
Rocío: 9°C
Humedad: 72%
Barómetro: 1024.7 hPa
Clouds: Muy nuboso
Visibilidad: 16 km
Cloud details: Few Clouds 305 m
Parcialmente nuboso 579 m
Parcialmente nuboso 823 m
Muy nuboso 5486 m
2020/01/26 22:56 KSFO 262256Z 28011KT 10SM FEW010 SCT019 SCT027 BKN180 14/09 A3026 RMK AO2 SLP246 T01440094
KE16 - San Martin, California, USA
Distance from station: ESE 43km
Actualización: 14/11/2019 10:35
NOT Current
Cubierto
Cubierto
 Viento del SE
Viento: SE 11 km/h
Temperatura: 12°C
Rocío: 10°C
Humedad: 88%
Barómetro: 1017.6 hPa
Clouds: Cubierto
Visibilidad: 16 km
Cloud details: Cubierto 427 m
2019/11/14 09:35 KE16 140935Z AUTO 13006KT 10SM OVC014 12/10 A3005 RMK AO2
 
KWVI - Watsonville, California, USA
Distance from station: SSE 44km
Actualización: 26/01/2020 23:53
Muy nuboso
Muy nuboso
 Viento del ESE
Viento: ESE 13 km/h
Temperatura: 17°C
Rocío: 12°C
Humedad: 73%
Barómetro: 1023.7 hPa
Clouds: Muy nuboso
Visibilidad: 16 km
Cloud details: Parcialmente nuboso 1006 m
Muy nuboso 1219 m
Muy nuboso 1524 m
2020/01/26 22:53 KWVI 262253Z AUTO 12007KT 10SM SCT033 BKN040 BKN050 17/12 A3023 RMK AO2 SLP237 T01720117
KHAF - Half Moon Bay, California, USA
Distance from station: ONO 50km
Actualización: 27/01/2020 00:40
Muy nuboso
Muy nuboso
 Viento del NO
Viento: NO 19 km/h
Temperatura: 13°C
Rocío: 10°C
Humedad: 82%
Barómetro: 1025.4 hPa
Clouds: Muy nuboso
Visibilidad: 11 km
Cloud details: Muy nuboso 396 m
Muy nuboso 640 m
2020/01/26 23:40 KHAF 262340Z AUTO 31010KT 7SM BKN013 BKN021 13/10 A3028 RMK AO2
 
KHWD - Hayward, California, USA
Distance from station: N 44km
Actualización: 26/01/2020 23:54
Despejado
Despejado
 Viento del O
Viento: O 15 km/h
Temperatura: 14°C
Rocío: 11°C
Humedad: 82%
Barómetro: 1024.7 hPa
Clouds: Despejado
2020/01/26 22:54 KHWD 262254Z 27008KT CLR 14/11 A3026 RMK AO2 SLP255 T01440106 $
KLVK - Livermore, California, USA
Distance from station: NNE 51km
Actualización: 26/01/2020 23:53
Parcialmente nuboso
Parcialmente nuboso
 Viento del O
Viento: O 17 km/h
Temperatura: 16°C
Rocío: 10°C
Humedad: 68%
Barómetro: 1023.7 hPa
Clouds: Parcialmente nuboso
Visibilidad: 16 km
Cloud details: Few Clouds 853 m
Parcialmente nuboso 1067 m
2020/01/26 22:53 KLVK 262253Z 26009KT 10SM FEW028 SCT035 16/10 A3023 RMK AO2 SLP235 T01560100